Time;durP1;ratioP1;P1;durP2;ratioP2;P2;SDS_P1;SDS_P2;PMS_P1;PMS_P2;Temp;Humidity;BMP_temperature;BMP_pressure;BME280_temperature;BME280_humidity;BME280_pressure;Samples;Min_cycle;Max_cycle;Signal;HPM_P1;HPM_P2
2022/04/15 00:01:26;;;;;;;6.80;4.72;;;17.00;1.00;;;;;;5054491;28;20032;-90
2022/04/15 00:03:53;;;;;;;8.63;4.95;;;17.00;1.00;;;;;;5054325;28;20539;-90
2022/04/15 00:06:21;;;;;;;8.10;4.43;;;16.90;1.00;;;;;;5054371;28;20037;-90
2022/04/15 00:08:47;;;;;;;6.68;4.30;;;16.90;1.00;;;;;;5049976;28;20515;-90
2022/04/15 00:11:14;;;;;;;7.53;4.85;;;16.80;1.00;;;;;;5037659;28;20036;-90
2022/04/15 00:13:41;;;;;;;7.88;4.90;;;16.80;1.00;;;;;;5054158;28;20032;-90
2022/04/15 00:16:07;;;;;;;8.10;4.68;;;17.00;1.00;;;;;;5054465;28;20024;-90
2022/04/15 00:18:34;;;;;;;8.40;4.60;;;16.70;1.00;;;;;;5054433;28;20036;-90
2022/04/15 00:21:01;;;;;;;9.93;4.72;;;16.70;1.00;;;;;;5052548;28;20453;-90
2022/04/15 00:23:26;;;;;;;9.52;4.72;;;16.60;1.00;;;;;;5054098;28;20095;-90
2022/04/15 00:25:53;;;;;;;6.32;4.88;;;16.70;1.00;;;;;;5054452;28;20112;-89
2022/04/15 00:28:20;;;;;;;11.18;4.20;;;16.70;1.00;;;;;;5053964;28;20021;-90
2022/04/15 00:30:46;;;;;;;8.30;4.90;;;16.70;1.00;;;;;;5053475;28;20064;-90
2022/04/15 00:33:12;;;;;;;7.68;4.30;;;16.70;1.00;;;;;;5053338;28;20048;-90
2022/04/15 00:35:38;;;;;;;8.38;4.40;;;16.60;1.00;;;;;;5050843;28;20044;-90
2022/04/15 00:38:04;;;;;;;8.02;4.68;;;16.50;1.00;;;;;;5056616;28;20025;-90
2022/04/15 00:40:30;;;;;;;8.95;4.85;;;16.50;1.00;;;;;;5053786;28;20039;-90
2022/04/15 00:42:55;;;;;;;5.90;4.25;;;16.40;1.00;;;;;;5053961;28;20385;-90
2022/04/15 00:45:21;;;;;;;7.55;4.60;;;16.10;1.00;;;;;;5054419;28;20317;-90
2022/04/15 00:47:56;;;;;;;9.18;4.40;;;16.10;1.00;;;;;;5049910;28;20401;-90
2022/04/15 00:50:32;;;;;;;6.25;4.50;;;16.10;1.00;;;;;;5054490;28;20025;-90
2022/04/15 00:52:59;;;;;;;6.07;4.32;;;16.10;1.00;;;;;;5054477;28;20144;-90
2022/04/15 00:55:25;;;;;;;6.30;4.10;;;16.10;1.00;;;;;;5054382;28;20112;-90
2022/04/15 00:58:04;;;;;;;6.88;4.45;;;15.90;1.00;;;;;;5054089;28;20051;-90
2022/04/15 01:00:33;;;;;;;8.35;4.63;;;15.70;1.00;;;;;;5054081;28;20031;-90
2022/04/15 01:03:00;;;;;;;8.75;5.18;;;15.80;1.00;;;;;;5051157;28;20024;-90
2022/04/15 01:05:26;;;;;;;7.50;4.55;;;15.60;1.00;;;;;;5053070;28;20098;-90
2022/04/15 01:07:57;;;;;;;5.40;4.38;;;15.50;1.00;;;;;;5053808;28;20443;-90
2022/04/15 01:10:24;;;;;;;6.07;4.28;;;15.60;1.00;;;;;;5052397;28;20029;-90
2022/04/15 01:12:54;;;;;;;6.38;4.43;;;15.50;1.00;;;;;;5053949;28;20036;-90
2022/04/15 01:15:21;;;;;;;8.60;4.47;;;15.60;1.00;;;;;;5053835;28;20508;-90
2022/04/15 01:17:48;;;;;;;5.95;4.32;;;15.60;1.00;;;;;;5049973;28;20037;-90
2022/04/15 01:20:14;;;;;;;5.95;4.30;;;15.50;1.00;;;;;;5056140;28;20017;-90
2022/04/15 01:22:45;;;;;;;8.07;4.25;;;15.50;1.00;;;;;;5053661;28;20033;-91
2022/04/15 01:25:16;;;;;;;5.53;4.68;;;15.50;1.00;;;;;;5054054;28;20025;-90
2022/04/15 01:27:47;;;;;;;6.75;4.07;;;15.50;1.00;;;;;;5052572;28;20033;-90
2022/04/15 01:30:13;;;;;;;11.82;5.13;;;15.30;1.00;;;;;;5053237;28;20074;-90
2022/04/15 01:32:39;;;;;;;7.70;4.47;;;15.20;1.00;;;;;;5050021;28;20134;-89
2022/04/15 01:35:06;;;;;;;5.90;4.40;;;15.30;1.00;;;;;;5055927;28;20060;-90
2022/04/15 01:37:32;;;;;;;7.03;4.40;;;15.30;1.00;;;;;;5053862;28;20528;-90
2022/04/15 01:39:58;;;;;;;7.22;4.30;;;15.40;1.00;;;;;;5053595;28;20033;-90
2022/04/15 01:42:25;;;;;;;6.18;4.30;;;15.50;1.00;;;;;;5054002;28;20044;-90
2022/04/15 01:44:50;;;;;;;10.05;4.45;;;15.50;1.00;;;;;;5048198;28;20025;-90
2022/04/15 01:47:16;;;;;;;6.57;4.35;;;15.20;1.00;;;;;;5054371;28;20029;-90
2022/04/15 01:49:42;;;;;;;7.10;4.53;;;15.10;1.00;;;;;;5052583;28;20028;-90
2022/04/15 01:52:08;;;;;;;6.47;4.28;;;15.30;1.00;;;;;;5052406;28;20029;-90
2022/04/15 01:54:33;;;;;;;8.73;5.10;;;15.30;1.00;;;;;;5057031;28;20040;-90
2022/04/15 01:56:59;;;;;;;7.28;4.95;;;15.00;1.00;;;;;;5055158;28;20388;-90
2022/04/15 01:59:25;;;;;;;5.97;4.47;;;14.80;1.00;;;;;;5056029;28;20541;-90
2022/04/15 02:01:54;;;;;;;7.60;4.70;;;14.60;1.00;;;;;;5058736;28;20107;-90
2022/04/15 02:04:27;;;;;;;5.78;4.40;;;14.70;1.00;;;;;;5057845;28;20040;-89
2022/04/15 02:06:53;;;;;;;4.97;4.20;;;14.80;1.00;;;;;;5057416;28;20021;-90
2022/04/15 02:09:20;;;;;;;5.20;4.60;;;14.90;1.00;;;;;;5056377;28;20037;-90
2022/04/15 02:11:45;;;;;;;7.90;4.78;;;15.10;1.00;;;;;;5052919;28;20628;-90
2022/04/15 02:14:14;;;;;;;6.80;4.80;;;15.10;1.00;;;;;;5059098;28;20033;-90
2022/04/15 02:16:41;;;;;;;6.40;4.30;;;15.00;1.00;;;;;;5057997;28;20048;-90
2022/04/15 02:19:07;;;;;;;6.32;4.47;;;15.00;1.00;;;;;;5056971;28;20020;-90
2022/04/15 02:21:33;;;;;;;7.68;4.40;;;15.10;1.00;;;;;;5057661;28;20062;-90
2022/04/15 02:23:58;;;;;;;6.18;4.80;;;14.80;1.00;;;;;;5053280;28;20037;-90
2022/04/15 02:26:24;;;;;;;7.72;4.85;;;14.50;1.00;;;;;;5056029;28;20013;-90
2022/04/15 02:28:50;;;;;;;6.75;5.00;;;14.40;1.00;;;;;;5057184;28;20040;-90
2022/04/15 02:31:16;;;;;;;8.32;4.40;;;14.20;1.00;;;;;;5056713;28;20477;-90
2022/04/15 02:33:41;;;;;;;5.03;4.53;;;14.30;1.00;;;;;;5056760;28;20033;-91
2022/04/15 02:36:07;;;;;;;7.88;4.78;;;14.10;1.00;;;;;;5055872;28;20032;-89
2022/04/15 02:38:33;;;;;;;8.13;5.07;;;14.00;1.00;;;;;;5053916;28;20120;-90
2022/04/15 02:40:59;;;;;;;6.55;4.38;;;14.00;1.00;;;;;;5058903;28;20052;-90
2022/04/15 02:43:31;;;;;;;8.10;4.55;;;14.30;1.00;;;;;;5056161;28;20374;-90
2022/04/15 02:45:58;;;;;;;6.32;4.35;;;14.40;1.00;;;;;;5056608;28;20083;-90
2022/04/15 02:48:24;;;;;;;7.57;4.70;;;14.10;1.00;;;;;;5057009;28;20476;-91
2022/04/15 02:50:50;;;;;;;7.18;4.88;;;14.10;1.00;;;;;;5052181;28;20053;-89
2022/04/15 02:53:15;;;;;;;5.82;4.50;;;14.10;1.00;;;;;;5057222;28;20043;-90
2022/04/15 02:55:41;;;;;;;7.18;4.68;;;14.20;1.00;;;;;;5057025;28;20029;-90
2022/04/15 02:58:06;;;;;;;4.60;3.97;;;14.10;1.00;;;;;;5056493;28;20115;-90
2022/04/15 03:00:32;;;;;;;6.63;4.45;;;14.30;1.00;;;;;;5056472;28;20481;-90
2022/04/15 03:02:58;;;;;;;5.75;3.83;;;14.30;1.00;;;;;;5052842;28;20021;-91
2022/04/15 03:05:23;;;;;;;7.35;4.63;;;14.20;1.00;;;;;;5054974;28;20401;-90
2022/04/15 03:07:49;;;;;;;5.53;4.57;;;14.10;1.00;;;;;;5055833;28;20013;-90
2022/04/15 03:10:15;;;;;;;6.68;4.43;;;14.00;1.00;;;;;;5056363;28;20039;-90
2022/04/15 03:12:41;;;;;;;8.63;4.85;;;14.00;1.00;;;;;;5056430;28;20029;-90
2022/04/15 03:15:10;;;;;;;5.60;4.63;;;13.90;1.00;;;;;;5054729;28;20029;-89
2022/04/15 03:17:36;;;;;;;7.10;5.03;;;13.70;1.00;;;;;;5052633;28;20116;-90
2022/04/15 03:20:06;;;;;;;7.32;4.75;;;13.60;1.00;;;;;;5056716;28;20119;-89
2022/04/15 03:22:42;;;;;;;6.97;4.60;;;13.70;1.00;;;;;;5056022;28;20090;-90
2022/04/15 03:25:10;;;;;;;8.23;5.13;;;13.80;1.00;;;;;;5055883;28;20478;-90
2022/04/15 03:27:36;;;;;;;6.82;4.82;;;14.00;1.00;;;;;;5054268;28;20033;-90
2022/04/15 03:30:04;;;;;;;6.43;4.68;;;14.00;1.00;;;;;;5054359;28;20469;-90
2022/04/15 03:32:30;;;;;;;6.45;4.65;;;14.00;1.00;;;;;;5053105;28;20041;-90
2022/04/15 03:34:57;;;;;;;5.75;4.90;;;13.90;1.00;;;;;;5057883;28;20104;-89
2022/04/15 03:37:24;;;;;;;7.30;4.68;;;13.80;1.00;;;;;;5056041;28;20096;-90
2022/04/15 03:39:49;;;;;;;6.10;4.28;;;13.90;1.00;;;;;;5055686;28;20082;-90
2022/04/15 03:42:15;;;;;;;6.63;4.20;;;14.00;1.00;;;;;;5052829;28;20489;-90
2022/04/15 03:44:41;;;;;;;5.47;4.55;;;14.10;1.00;;;;;;5050493;28;20037;-90
2022/04/15 03:47:07;;;;;;;5.40;4.70;;;13.90;1.00;;;;;;5057342;28;20028;-90
2022/04/15 03:49:33;;;;;;;7.88;5.28;;;13.80;1.00;;;;;;5055480;28;20033;-91
2022/04/15 03:52:00;;;;;;;6.88;5.05;;;13.80;1.00;;;;;;5055266;28;20037;-90
2022/04/15 03:54:25;;;;;;;8.57;4.80;;;13.90;1.00;;;;;;5055802;28;20089;-90
2022/04/15 03:56:51;;;;;;;7.15;4.70;;;14.00;1.00;;;;;;5052250;28;20025;-89
2022/04/15 03:59:17;;;;;;;6.32;4.78;;;13.90;1.00;;;;;;5055918;28;20055;-90
2022/04/15 04:01:43;;;;;;;6.72;4.85;;;13.70;1.00;;;;;;5054571;28;20028;-89
2022/04/15 04:04:09;;;;;;;8.30;4.85;;;13.50;1.00;;;;;;5055348;28;20442;-90
2022/04/15 04:06:35;;;;;;;5.95;4.85;;;13.70;1.00;;;;;;5054241;28;20039;-90
2022/04/15 04:09:00;;;;;;;6.90;4.93;;;13.80;1.00;;;;;;5052732;28;20112;-90
2022/04/15 04:11:26;;;;;;;7.45;5.10;;;13.70;1.00;;;;;;5053761;28;20113;-90
2022/04/15 04:13:52;;;;;;;7.88;5.25;;;13.80;1.00;;;;;;5056679;28;20043;-90
2022/04/15 04:16:18;;;;;;;7.47;5.38;;;13.70;1.00;;;;;;5054350;28;20033;-90
2022/04/15 04:18:44;;;;;;;6.25;5.28;;;13.60;1.00;;;;;;5055291;28;20071;-90
2022/04/15 04:21:11;;;;;;;6.93;5.38;;;13.50;1.00;;;;;;5051408;28;20085;-90
2022/04/15 04:23:37;;;;;;;5.55;5.05;;;13.70;1.00;;;;;;5049584;28;20021;-90
2022/04/15 04:26:03;;;;;;;6.18;5.40;;;13.80;1.00;;;;;;5056312;28;20103;-90
2022/04/15 04:28:29;;;;;;;7.53;5.18;;;13.80;1.00;;;;;;5053435;28;20093;-90
2022/04/15 04:30:55;;;;;;;6.25;5.60;;;13.50;1.00;;;;;;5054838;28;20021;-90
2022/04/15 04:33:21;;;;;;;9.07;5.35;;;13.60;1.00;;;;;;5054301;28;20053;-90
2022/04/15 04:35:47;;;;;;;6.15;5.53;;;13.40;1.00;;;;;;5050592;28;20025;-90
2022/04/15 04:38:13;;;;;;;10.00;5.07;;;13.50;1.00;;;;;;5056843;28;20029;-90
2022/04/15 04:40:40;;;;;;;11.82;5.53;;;13.30;1.00;;;;;;5054453;28;20040;-90
2022/04/15 04:43:06;;;;;;;9.25;4.72;;;13.30;1.00;;;;;;5054352;28;20606;-90
2022/04/15 04:45:32;;;;;;;6.00;4.97;;;13.20;1.00;;;;;;5054480;28;20039;-90
2022/04/15 04:48:00;;;;;;;8.35;5.50;;;13.40;1.00;;;;;;5052123;28;20439;-90
2022/04/15 04:50:28;;;;;;;12.25;5.60;;;13.40;1.00;;;;;;5052873;28;20025;-90
2022/04/15 04:52:53;;;;;;;6.95;5.18;;;13.40;1.00;;;;;;5056135;28;20501;-90
2022/04/15 04:55:19;;;;;;;6.35;5.30;;;13.40;1.00;;;;;;5054356;28;20029;-90
2022/04/15 04:57:45;;;;;;;7.15;5.35;;;13.20;1.00;;;;;;5054236;28;20243;-90
2022/04/15 05:00:12;;;;;;;6.20;5.60;;;13.30;1.00;;;;;;5052272;28;20017;-90
2022/04/15 05:02:38;;;;;;;8.73;5.70;;;13.30;1.00;;;;;;5049964;27;20045;-90
2022/04/15 05:05:05;;;;;;;7.50;5.22;;;13.00;1.00;;;;;;5055233;28;20028;-90
2022/04/15 05:07:31;;;;;;;11.43;5.53;;;13.20;1.00;;;;;;5054346;28;20051;-90
2022/04/15 05:09:56;;;;;;;10.30;5.47;;;13.10;1.00;;;;;;5054038;28;20028;-90
2022/04/15 05:12:22;;;;;;;8.80;5.60;;;13.20;1.00;;;;;;5053818;28;20074;-90
2022/04/15 05:14:48;;;;;;;9.98;5.50;;;13.30;1.00;;;;;;5050087;28;20574;-90
2022/04/15 05:17:14;;;;;;;7.32;5.90;;;13.20;1.00;;;;;;5055477;28;20524;-91
2022/04/15 05:19:39;;;;;;;7.80;5.35;;;13.20;1.00;;;;;;5052778;28;20075;-90
2022/04/15 05:22:05;;;;;;;7.57;5.70;;;12.90;1.00;;;;;;5054305;28;20064;-90
2022/04/15 05:24:31;;;;;;;7.78;5.70;;;12.90;1.00;;;;;;5053431;28;20078;-90
2022/04/15 05:26:57;;;;;;;8.00;5.60;;;12.90;1.00;;;;;;5049391;28;20036;-90
2022/04/15 05:29:23;;;;;;;8.65;5.95;;;13.00;1.00;;;;;;5053610;28;20025;-90
2022/04/15 05:31:48;;;;;;;8.35;5.35;;;13.10;1.00;;;;;;5053226;28;20060;-89
2022/04/15 05:34:14;;;;;;;6.72;5.57;;;13.10;1.00;;;;;;5053844;28;20188;-90
2022/04/15 05:36:39;;;;;;;9.15;6.03;;;12.90;1.00;;;;;;5053656;28;20059;-91
2022/04/15 05:39:05;;;;;;;10.23;6.15;;;13.00;1.00;;;;;;5051561;28;20044;-93
2022/04/15 05:41:31;;;;;;;12.75;6.43;;;13.10;1.00;;;;;;5050935;28;20025;-91
2022/04/15 05:43:58;;;;;;;10.73;5.97;;;13.00;1.00;;;;;;5054583;28;20112;-91
2022/04/15 05:46:27;;;;;;;13.50;5.70;;;12.90;1.00;;;;;;5054078;28;20458;-92
2022/04/15 05:48:52;;;;;;;7.75;5.63;;;12.90;1.00;;;;;;5059879;28;20512;-93
2022/04/15 05:51:19;;;;;;;10.93;6.05;;;13.10;1.00;;;;;;5061672;28;20060;-93
2022/04/15 05:53:45;;;;;;;10.70;5.57;;;13.20;1.00;;;;;;5065424;28;20464;-91
2022/04/15 05:56:10;;;;;;;8.15;5.70;;;13.20;1.00;;;;;;5062932;28;20480;-91
2022/04/15 05:58:36;;;;;;;15.77;5.85;;;13.30;1.00;;;;;;5053357;28;20035;-89
2022/04/15 06:01:02;;;;;;;14.43;6.20;;;13.50;1.00;;;;;;5053544;28;20021;-89
2022/04/15 06:03:32;;;;;;;11.27;5.63;;;13.40;1.00;;;;;;5053843;28;20500;-89
2022/04/15 06:05:58;;;;;;;7.47;5.55;;;13.60;1.00;;;;;;5049397;28;20024;-89
2022/04/15 06:08:24;;;;;;;9.07;5.97;;;13.60;1.00;;;;;;5065198;28;20488;-90
2022/04/15 06:10:49;;;;;;;7.78;5.53;;;13.30;1.00;;;;;;5054893;28;20048;-89
2022/04/15 06:13:19;;;;;;;10.35;6.18;;;13.30;1.00;;;;;;5052904;28;20056;-89
2022/04/15 06:15:52;;;;;;;11.75;6.60;;;13.10;1.00;;;;;;5053455;28;20028;-89
2022/04/15 06:18:19;;;;;;;14.88;6.18;;;13.20;1.00;;;;;;5052194;28;20037;-89
2022/04/15 06:20:46;;;;;;;11.38;6.53;;;13.30;1.00;;;;;;5047329;28;20024;-88
2022/04/15 06:23:12;;;;;;;12.23;6.65;;;13.30;1.00;;;;;;5062781;28;20033;-88
2022/04/15 06:25:38;;;;;;;9.90;5.90;;;13.50;1.00;;;;;;5053362;28;20044;-87
2022/04/15 06:28:05;;;;;;;11.52;6.22;;;13.70;1.00;;;;;;5053662;28;20032;-94
2022/04/15 06:30:31;;;;;;;9.73;6.50;;;13.70;1.00;;;;;;5050593;28;20033;-88
2022/04/15 06:32:56;;;;;;;10.77;5.70;;;13.70;1.00;;;;;;5064410;28;20060;-87
2022/04/15 06:35:22;;;;;;;10.70;7.15;;;13.90;1.00;;;;;;5053186;28;20070;-87
2022/04/15 06:37:47;;;;;;;11.25;6.50;;;14.10;1.00;;;;;;5054471;28;20066;-87
2022/04/15 06:40:13;;;;;;;11.25;5.95;;;14.10;1.00;;;;;;5055594;28;20025;-89
2022/04/15 06:42:39;;;;;;;13.38;6.25;;;14.20;1.00;;;;;;5057181;28;20040;-89
2022/04/15 06:45:06;;;;;;;8.95;5.95;;;14.30;1.00;;;;;;5055301;28;20491;-88
2022/04/15 06:47:32;;;;;;;11.73;6.18;;;14.40;1.00;;;;;;5054758;28;20119;-88
2022/04/15 06:49:57;;;;;;;13.07;6.45;;;14.60;1.00;;;;;;5058538;28;20112;-89
2022/04/15 06:52:23;;;;;;;10.23;6.43;;;14.60;1.00;;;;;;5056831;28;20037;-88
2022/04/15 06:54:49;;;;;;;12.32;6.85;;;14.70;1.00;;;;;;5056946;28;20050;-88
2022/04/15 06:57:15;;;;;;;10.93;6.03;;;14.60;1.00;;;;;;5055149;28;20040;-88
2022/04/15 06:59:40;;;;;;;7.68;5.90;;;14.70;1.00;;;;;;5051876;28;20494;-88
2022/04/15 07:02:06;;;;;;;9.55;5.53;;;14.70;1.00;;;;;;5058172;28;20025;-91
2022/04/15 07:04:32;;;;;;;5.65;4.90;;;14.60;1.00;;;;;;5056781;28;20036;-91
2022/04/15 07:06:58;;;;;;;6.28;5.00;;;14.60;1.00;;;;;;5056560;28;20037;-91
2022/04/15 07:09:24;;;;;;;9.65;5.78;;;14.60;1.00;;;;;;5056973;28;20052;-88
2022/04/15 07:11:50;;;;;;;6.60;5.40;;;14.60;1.00;;;;;;5051401;28;20076;-87
2022/04/15 07:14:17;;;;;;;7.20;5.13;;;14.70;1.00;;;;;;5057517;28;20025;-88
2022/04/15 07:16:43;;;;;;;6.68;5.40;;;14.80;1.00;;;;;;5055573;28;20028;-88
2022/04/15 07:19:09;;;;;;;9.02;5.60;;;14.80;1.00;;;;;;5056178;28;20079;-88
2022/04/15 07:21:35;;;;;;;9.20;5.75;;;14.90;1.00;;;;;;5056359;28;20033;-88
2022/04/15 07:24:01;;;;;;;7.30;5.85;;;14.90;1.00;;;;;;5054606;28;20037;-91
2022/04/15 07:26:27;;;;;;;8.85;6.20;;;14.80;1.00;;;;;;5054736;28;20183;-91
2022/04/15 07:28:53;;;;;;;6.28;5.68;;;15.00;1.00;;;;;;5057979;28;20033;-91
2022/04/15 07:31:18;;;;;;;8.30;5.63;;;15.00;1.00;;;;;;5056096;28;20392;-88
2022/04/15 07:33:46;;;;;;;8.68;5.68;;;15.00;1.00;;;;;;5056207;28;20040;-89
2022/04/15 07:38:57;;;;;;;8.60;5.93;;;15.00;1.00;;;;;;5037919;28;20052;-89
2022/04/15 07:41:22;;;;;;;7.30;5.65;;;15.10;1.00;;;;;;5054476;28;20025;-87
2022/04/15 07:43:48;;;;;;;8.00;5.65;;;15.30;1.00;;;;;;5057078;28;20017;-88
2022/04/15 07:46:14;;;;;;;7.88;5.45;;;15.30;1.00;;;;;;5056265;28;20036;-88
2022/04/15 07:48:40;;;;;;;6.63;5.90;;;15.30;1.00;;;;;;5055642;28;20025;-88
2022/04/15 07:51:06;;;;;;;9.60;6.15;;;15.30;1.00;;;;;;5054564;28;20044;-88
2022/04/15 07:53:31;;;;;;;9.07;6.28;;;15.40;1.00;;;;;;5052843;28;20052;-88
2022/04/15 07:55:57;;;;;;;8.55;6.28;;;15.50;1.00;;;;;;5058266;28;20028;-88
2022/04/15 07:58:23;;;;;;;9.05;6.10;;;15.40;1.00;;;;;;5055514;28;20033;-88
2022/04/15 08:00:49;;;;;;;7.95;6.50;;;15.50;1.00;;;;;;5055611;28;20033;-88
2022/04/15 08:03:17;;;;;;;7.45;5.97;;;15.70;1.00;;;;;;5054856;28;20021;-88
2022/04/15 08:05:43;;;;;;;8.48;5.90;;;15.70;1.00;;;;;;5051701;28;20159;-88
2022/04/15 08:08:09;;;;;;;7.95;6.32;;;15.90;1.00;;;;;;5057435;28;20068;-88
2022/04/15 08:10:34;;;;;;;8.00;6.20;;;15.80;1.00;;;;;;5055370;28;20509;-88
2022/04/15 08:13:02;;;;;;;7.40;6.22;;;15.80;1.00;;;;;;5055081;28;20033;-88
2022/04/15 08:15:28;;;;;;;8.27;6.38;;;15.90;1.00;;;;;;5055478;28;20024;-88
2022/04/15 08:17:53;;;;;;;8.80;6.40;;;16.00;1.00;;;;;;5064909;28;20028;-89
2022/04/15 08:20:19;;;;;;;7.38;6.53;;;16.10;1.00;;;;;;5056027;28;20218;-88
2022/04/15 08:22:45;;;;;;;14.75;7.45;;;16.00;1.00;;;;;;5054864;28;20033;-89
2022/04/15 08:25:11;;;;;;;11.35;6.78;;;16.10;1.00;;;;;;5055174;28;20067;-89
2022/04/15 08:27:36;;;;;;;10.15;7.15;;;16.20;1.00;;;;;;5055196;28;20040;-88
2022/04/15 08:30:03;;;;;;;8.68;6.88;;;16.30;1.00;;;;;;5053296;28;20031;-88
2022/04/15 08:32:33;;;;;;;8.30;6.53;;;16.40;1.00;;;;;;5052562;28;20045;-88
2022/04/15 08:35:00;;;;;;;9.70;6.80;;;16.40;1.00;;;;;;5055391;28;20032;-88
2022/04/15 08:37:26;;;;;;;7.95;6.50;;;16.50;1.00;;;;;;5054947;28;20029;-88
2022/04/15 08:39:51;;;;;;;10.85;6.95;;;16.50;1.00;;;;;;5054279;28;20370;-89
2022/04/15 08:42:20;;;;;;;15.35;7.97;;;16.60;1.00;;;;;;5053620;28;20025;-89
2022/04/15 08:44:50;;;;;;;8.82;7.93;;;16.70;1.00;;;;;;5035317;28;20021;-88
2022/04/15 08:47:16;;;;;;;9.32;8.32;;;16.90;1.00;;;;;;5064377;28;20036;-89
2022/04/15 08:49:41;;;;;;;10.93;7.28;;;16.70;1.00;;;;;;5055015;28;20091;-89
2022/04/15 08:52:12;;;;;;;9.40;7.65;;;16.80;1.00;;;;;;5054718;28;20037;-88
2022/04/15 08:54:38;;;;;;;8.15;6.90;;;17.10;1.00;;;;;;5053612;28;20111;-88
2022/04/15 08:57:04;;;;;;;9.48;7.30;;;17.00;1.00;;;;;;5051116;28;20037;-88
2022/04/15 08:59:30;;;;;;;9.80;7.68;;;17.10;1.00;;;;;;5052889;28;20028;-88
2022/04/15 09:01:55;;;;;;;9.27;7.60;;;17.20;1.00;;;;;;5053613;28;20032;-89
2022/04/15 09:04:21;;;;;;;10.35;7.40;;;17.20;1.00;;;;;;5054582;28;20025;-88
2022/04/15 09:06:58;;;;;;;10.52;7.45;;;17.30;1.00;;;;;;5054599;28;20572;-89
2022/04/15 09:09:30;;;;;;;8.13;7.00;;;17.40;1.00;;;;;;5054613;28;20047;-91
2022/04/15 09:11:58;;;;;;;10.38;7.82;;;17.60;1.00;;;;;;5051771;28;20040;-88
2022/04/15 09:14:25;;;;;;;9.18;7.40;;;17.80;1.00;;;;;;5053316;28;20024;-89
2022/04/15 09:16:50;;;;;;;8.57;7.45;;;17.70;1.00;;;;;;5055652;28;20555;-88
2022/04/15 09:19:17;;;;;;;10.80;8.07;;;17.70;1.00;;;;;;5054339;28;20036;-89
2022/04/15 09:21:52;;;;;;;10.25;7.72;;;17.60;1.00;;;;;;5054622;28;20021;-89
2022/04/15 09:24:32;;;;;;;8.77;7.85;;;17.80;1.00;;;;;;5052921;28;20024;-89
2022/04/15 09:27:02;;;;;;;11.38;8.02;;;17.70;1.00;;;;;;5037398;28;20029;-89
2022/04/15 09:29:33;;;;;;;8.93;7.18;;;17.90;1.00;;;;;;5052174;28;20135;-91
2022/04/15 09:32:06;;;;;;;9.35;7.57;;;18.20;1.00;;;;;;5054443;28;20045;-88
2022/04/15 09:34:31;;;;;;;10.10;8.25;;;18.40;1.00;;;;;;5052801;28;20032;-89
2022/04/15 09:36:57;;;;;;;9.43;8.40;;;18.50;1.00;;;;;;5052596;28;20055;-89
2022/04/15 09:39:23;;;;;;;13.93;9.00;;;18.30;1.00;;;;;;5053927;28;20382;-89
2022/04/15 09:41:54;;;;;;;11.18;8.18;;;18.30;1.00;;;;;;5050606;28;20064;-88
2022/04/15 09:44:22;;;;;;;10.35;7.97;;;18.40;1.00;;;;;;5053885;28;20032;-89
2022/04/15 09:46:51;;;;;;;11.05;7.65;;;18.40;1.00;;;;;;5054941;28;20036;-89
2022/04/15 09:49:17;;;;;;;11.88;8.55;;;18.30;1.00;;;;;;5053816;28;20532;-88
2022/04/15 09:51:45;;;;;;;11.45;8.45;;;18.40;1.00;;;;;;5054307;28;20025;-88
2022/04/15 09:54:23;;;;;;;11.57;8.98;;;18.70;1.00;;;;;;5052620;28;20021;-89
2022/04/15 09:56:50;;;;;;;12.15;8.77;;;18.80;1.00;;;;;;5035027;28;20039;-88
2022/04/15 09:59:19;;;;;;;10.95;8.52;;;19.00;1.00;;;;;;5054876;28;20086;-89
2022/04/15 10:01:47;;;;;;;10.80;9.00;;;19.30;1.00;;;;;;5052939;28;20021;-89
2022/04/15 10:04:14;;;;;;;10.88;9.73;;;19.40;1.00;;;;;;5054130;28;20048;-89
2022/04/15 10:06:41;;;;;;;9.63;8.15;;;19.30;1.00;;;;;;5054315;28;20482;-88
2022/04/15 10:09:11;;;;;;;11.57;8.10;;;19.50;1.00;;;;;;5052428;28;20032;-89
2022/04/15 10:11:40;;;;;;;10.15;9.10;;;19.80;1.00;;;;;;5050381;28;20039;-89
2022/04/15 10:14:06;;;;;;;11.20;9.00;;;19.90;1.00;;;;;;5054952;28;20514;-89
2022/04/15 10:16:33;;;;;;;9.98;8.30;;;19.80;1.00;;;;;;5056514;28;20032;-89
2022/04/15 10:19:01;;;;;;;10.80;8.55;;;20.00;1.00;;;;;;5057554;28;20028;-89
2022/04/15 10:21:30;;;;;;;11.57;7.40;;;20.20;1.00;;;;;;5057608;28;20036;-89
2022/04/15 10:23:56;;;;;;;10.13;9.13;;;21.00;1.00;;;;;;5054569;28;20048;-89
2022/04/15 10:26:23;;;;;;;8.48;7.63;;;21.30;1.00;;;;;;5057445;28;20434;-89
2022/04/15 10:28:49;;;;;;;11.18;8.32;;;22.00;1.00;;;;;;5058475;28;20025;-88
2022/04/15 10:31:16;;;;;;;9.75;8.63;;;22.20;1.00;;;;;;5057078;28;20374;-89
2022/04/15 10:33:44;;;;;;;11.90;8.57;;;22.40;1.00;;;;;;5057176;28;20421;-89
2022/04/15 10:36:22;;;;;;;10.10;7.72;;;23.10;1.00;;;;;;5056103;28;20059;-89
2022/04/15 10:39:03;;;;;;;8.98;7.43;;;23.70;1.00;;;;;;5037563;28;20025;-90
2022/04/15 10:41:41;;;;;;;10.07;7.85;;;24.30;1.00;;;;;;5055124;28;20393;-90
2022/04/15 10:44:07;;;;;;;9.10;7.05;;;24.10;1.00;;;;;;5057130;28;20389;-90
2022/04/15 10:46:36;;;;;;;9.45;7.47;;;24.30;1.00;;;;;;5057579;28;20033;-89
2022/04/15 10:49:27;;;;;;;11.00;7.93;;;24.90;1.00;;;;;;5057025;28;20029;-90
2022/04/15 10:52:01;;;;;;;8.82;8.02;;;24.90;1.00;;;;;;5055452;28;20056;-90
2022/04/15 10:54:37;;;;;;;10.63;7.68;;;25.10;1.00;;;;;;5055400;28;20037;-89
2022/04/15 10:57:09;;;;;;;8.88;7.68;;;25.30;1.00;;;;;;5055059;28;20014;-90
2022/04/15 11:02:34;;;;;;;11.00;7.68;;;26.10;1.00;;;;;;5067129;28;20035;-90
2022/04/15 11:05:00;;;;;;;12.18;7.60;;;26.20;1.00;;;;;;5056190;28;20124;-90
2022/04/15 11:07:39;;;;;;;8.15;7.25;;;26.50;1.00;;;;;;5056447;28;20073;-91
2022/04/15 11:10:33;;;;;;;8.90;8.00;;;26.60;1.00;;;;;;5056820;28;20087;-93
2022/04/15 11:12:59;;;;;;;9.13;7.10;;;26.40;1.00;;;;;;5056469;28;20137;-91
2022/04/15 11:16:02;;;;;;;8.07;7.25;;;26.60;1.00;;;;;;5056682;28;20057;-90
2022/04/15 11:18:43;;;;;;;8.27;7.30;;;26.90;1.00;;;;;;5056103;28;20403;-91
2022/04/15 11:21:19;;;;;;;10.18;8.50;;;27.30;1.00;;;;;;5055010;28;20494;-91
2022/04/15 11:23:47;;;;;;;8.90;7.28;;;28.00;1.00;;;;;;5036164;28;20513;-91
2022/04/15 11:26:15;;;;;;;9.27;7.53;;;28.30;1.00;;;;;;5064890;28;20024;-92
2022/04/15 11:28:43;;;;;;;9.85;7.10;;;27.90;1.00;;;;;;5056710;28;20032;-93
2022/04/15 11:31:32;;;;;;;11.75;7.60;;;27.50;1.00;;;;;;5055834;28;20074;-91
2022/04/15 11:34:09;;;;;;;8.32;6.75;;;28.30;1.00;;;;;;5054738;28;20041;-91
2022/04/15 11:36:40;;;;;;;8.98;7.60;;;29.20;1.00;;;;;;5054941;28;20037;-91
2022/04/15 11:39:09;;;;;;;9.13;7.50;;;28.20;1.00;;;;;;5054331;28;20502;-90
2022/04/15 11:41:35;;;;;;;9.25;7.80;;;28.20;1.00;;;;;;5052741;28;20048;-91
2022/04/15 11:44:03;;;;;;;9.77;6.97;;;28.60;1.00;;;;;;5056829;28;20017;-91
2022/04/15 11:46:38;;;;;;;10.38;7.88;;;29.10;1.00;;;;;;5055957;28;20025;-91
2022/04/15 11:49:23;;;;;;;9.77;7.03;;;28.60;1.00;;;;;;5055836;28;20033;-91
2022/04/15 11:51:56;;;;;;;9.40;6.90;;;29.30;1.00;;;;;;5056136;28;20025;-91
2022/04/15 11:54:35;;;;;;;9.10;6.93;;;29.50;1.00;;;;;;5055575;28;20564;-91
2022/04/15 11:57:05;;;;;;;10.05;7.25;;;29.80;1.00;;;;;;5053228;28;20512;-91
2022/04/15 11:59:44;;;;;;;12.40;7.53;;;29.90;1.00;;;;;;5053653;28;20086;-91
2022/04/15 12:02:14;;;;;;;11.02;7.63;;;29.30;1.00;;;;;;5057299;28;20108;-91
2022/04/15 12:04:51;;;;;;;9.05;6.88;;;29.70;1.00;;;;;;5055863;28;20127;-91
2022/04/15 12:07:19;;;;;;;11.48;6.90;;;30.70;1.00;;;;;;5055616;28;20032;-91
2022/04/15 12:09:45;;;;;;;9.50;7.10;;;31.00;1.00;;;;;;5053895;28;20079;-92
2022/04/15 12:12:11;;;;;;;9.73;6.63;;;31.30;1.00;;;;;;5052787;28;20020;-92
2022/04/15 12:14:40;;;;;;;8.80;6.90;;;32.30;1.00;;;;;;5052297;28;20041;-91
2022/04/15 12:17:08;;;;;;;8.98;6.32;;;31.20;1.00;;;;;;5057410;28;20013;-91
2022/04/15 12:19:35;;;;;;;8.43;6.72;;;32.20;1.00;;;;;;5055321;28;20040;-92
2022/04/15 12:22:01;;;;;;;11.43;7.18;;;32.00;1.00;;;;;;5055289;28;20033;-92
2022/04/15 12:24:30;;;;;;;8.13;5.50;;;31.90;1.00;;;;;;5055030;28;20039;-92
2022/04/15 12:26:59;;;;;;;9.25;6.63;;;31.30;1.00;;;;;;5052321;28;20033;-91
2022/04/15 12:32:35;;;;;;;7.18;5.88;;;31.30;1.00;;;;;;5056860;28;20513;-91
2022/04/15 12:35:00;;;;;;;9.63;6.35;;;32.00;1.00;;;;;;5055415;28;20040;-92
2022/04/15 12:37:53;;;;;;;8.40;5.57;;;32.50;1.00;;;;;;5054288;28;20021;-91
2022/04/15 12:40:19;;;;;;;9.05;6.07;;;32.90;1.00;;;;;;5054940;28;20090;-91
2022/04/15 12:42:46;;;;;;;9.73;6.57;;;32.20;1.00;;;;;;5054767;28;20485;-91
2022/04/15 12:45:16;;;;;;;9.27;5.93;;;31.80;1.00;;;;;;5054413;28;20393;-92
2022/04/15 12:47:45;;;;;;;6.85;5.93;;;32.00;1.00;;;;;;5049963;28;20059;-91
2022/04/15 12:50:23;;;;;;;10.68;5.88;;;31.60;1.00;;;;;;5056606;28;20110;-90
2022/04/15 12:52:54;;;;;;;7.72;6.20;;;30.00;1.00;;;;;;5055170;28;20064;-91
2022/04/15 12:55:28;;;;;;;10.43;6.50;;;29.50;1.00;;;;;;5054652;28;20552;-92
2022/04/15 12:57:55;;;;;;;9.77;5.55;;;29.70;1.00;;;;;;5054677;28;20025;-91
2022/04/15 13:00:20;;;;;;;8.23;5.32;;;30.10;1.00;;;;;;5054774;28;20404;-92
2022/04/15 13:02:46;;;;;;;9.48;5.70;;;30.60;1.00;;;;;;5050648;28;20030;-91
2022/04/15 13:05:12;;;;;;;7.18;5.03;;;30.30;1.00;;;;;;5056554;28;20027;-91
2022/04/15 13:07:38;;;;;;;6.95;5.60;;;31.10;1.00;;;;;;5054138;28;20124;-91